KDUC/DUC METAR and TAF weather

Enter ICAO airport designator
Station Type Date Time Source
KDUC METAR 2018/07/21 03:55 UTC NOAA

KDUC 210355Z AUTO 17006KT 10SM CLR 30/14 A2989 RMK AO2 T03020136


Station Type Date Time Source
KDUC Decoded METAR 2018/07/21 03:55 UTC NOAA

Duncan, Halliburton Field Airport, OK, United States (KDUC) 34-28-15N 097-57-36W
Jul 20, 2018 - 11:55 PM EDT / 2018.07.21 0355 UTC
Wind: from the S (170 degrees) at 7 MPH (6 KT):0
Visibility: 10 mile(s):0
Sky conditions: clear
Temperature: 86.4 F (30.2 C)
Dew Point: 56.5 F (13.6 C)
Relative Humidity: 36%
Pressure (altimeter): 29.89 in. Hg (1012 hPa)
ob: KDUC 210355Z AUTO 17006KT 10SM CLR 30/14 A2989 RMK AO2 T03020136
cycle: 4

Station Type Date Time Source
KDUC TAF UTC NOAA

Error!


Example: see airport list